createdAt,value
2017-10-11T06:00:52.335Z,99.60
2017-10-11T06:03:18.371Z,99.60
2017-10-11T06:05:44.398Z,99.70
2017-10-11T06:08:10.447Z,99.90
2017-10-11T06:10:36.470Z,99.90
2017-10-11T06:13:02.503Z,99.90
2017-10-11T06:15:29.483Z,99.90
2017-10-11T06:17:55.799Z,99.90
2017-10-11T06:20:21.810Z,99.90
2017-10-11T06:22:47.875Z,99.90
2017-10-11T06:25:13.907Z,99.90
2017-10-11T06:27:39.935Z,99.90
2017-10-11T06:30:05.979Z,99.90
2017-10-11T06:32:32.008Z,99.90
2017-10-11T06:34:58.042Z,99.90
2017-10-11T06:37:25.011Z,99.50
2017-10-11T06:39:51.061Z,99.50
2017-10-11T06:42:17.095Z,99.50
2017-10-11T06:44:43.117Z,99.60
2017-10-11T06:47:09.184Z,99.50
2017-10-11T06:49:35.946Z,99.40
2017-10-11T06:52:01.984Z,99.40
2017-10-11T06:54:28.039Z,99.40
2017-10-11T06:56:54.106Z,99.20
2017-10-11T06:59:20.153Z,99.00
2017-10-11T07:01:46.191Z,99.00
2017-10-11T07:04:12.215Z,99.00
2017-10-11T07:06:38.307Z,98.60
2017-10-11T07:09:04.639Z,98.70
2017-10-11T07:11:30.651Z,98.80
2017-10-11T07:13:56.680Z,98.60
2017-10-11T07:16:22.721Z,98.70
2017-10-11T07:18:48.959Z,98.60
2017-10-11T07:21:14.975Z,98.50
2017-10-11T07:23:40.994Z,98.20
2017-10-11T07:26:07.019Z,98.20
2017-10-11T07:28:33.568Z,98.10
2017-10-11T07:30:59.686Z,98.20
2017-10-11T07:33:25.723Z,98.30
2017-10-11T07:35:52.519Z,97.90
2017-10-11T07:38:18.530Z,97.90
2017-10-11T07:40:44.551Z,98.10
2017-10-11T07:43:10.902Z,98.10
2017-10-11T07:45:36.926Z,98.10
2017-10-11T07:48:02.995Z,98.50
2017-10-11T07:50:29.808Z,98.60
2017-10-11T07:52:55.911Z,98.60
2017-10-11T07:55:21.963Z,98.60
2017-10-11T07:57:48.034Z,98.50
2017-10-11T08:00:14.073Z,98.50
2017-10-11T08:02:40.103Z,98.90
2017-10-11T08:05:06.203Z,98.80
2017-10-11T08:07:32.230Z,98.60
2017-10-11T08:09:58.264Z,98.80
2017-10-11T08:12:24.342Z,99.00
2017-10-11T08:14:51.122Z,99.60
2017-10-11T08:17:17.171Z,99.60
2017-10-11T08:19:43.675Z,99.70
2017-10-11T08:22:09.727Z,99.90
2017-10-11T08:24:35.751Z,99.90
2017-10-11T08:27:02.652Z,99.90
2017-10-11T08:29:28.693Z,99.90
2017-10-11T08:31:54.710Z,99.90
2017-10-11T08:34:20.716Z,99.90
2017-10-11T08:36:46.737Z,99.90
2017-10-11T08:39:12.791Z,99.90
2017-10-11T08:41:38.835Z,99.90
2017-10-11T08:44:04.851Z,99.80
2017-10-11T08:46:31.225Z,99.80
2017-10-11T08:48:57.257Z,99.80
2017-10-11T08:51:23.279Z,99.60
2017-10-11T08:53:49.505Z,99.30
2017-10-11T08:56:15.535Z,99.30
2017-10-11T08:58:41.551Z,99.30
2017-10-11T09:01:07.603Z,99.40
2017-10-11T09:03:33.656Z,99.50
2017-10-11T09:05:59.679Z,99.60
2017-10-11T09:08:25.737Z,99.10
2017-10-11T09:10:51.770Z,98.30
2017-10-11T09:13:17.802Z,98.20
2017-10-11T09:15:43.876Z,98.30
2017-10-11T09:18:10.659Z,98.30
2017-10-11T09:20:37.102Z,98.30
2017-10-11T09:23:03.166Z,97.60
2017-10-11T09:25:29.962Z,97.40
2017-10-11T09:27:56.170Z,97.40
2017-10-11T09:30:22.210Z,97.60
2017-10-11T09:32:48.239Z,97.60
2017-10-11T09:35:14.307Z,97.50
2017-10-11T09:37:41.079Z,98.20
2017-10-11T09:40:07.110Z,98.10
2017-10-11T09:42:33.151Z,98.50
2017-10-11T09:44:59.174Z,98.80
2017-10-11T09:47:25.224Z,98.90
2017-10-11T09:49:51.526Z,98.90
2017-10-11T09:52:17.534Z,99.30
2017-10-11T09:54:43.567Z,99.50
2017-10-11T09:57:09.855Z,99.80
2017-10-11T09:59:35.905Z,99.90
2017-10-11T10:02:01.955Z,99.90
2017-10-11T10:04:28.348Z,99.90
2017-10-11T10:06:54.367Z,99.90
2017-10-11T10:09:20.394Z,99.90
2017-10-11T10:11:46.538Z,99.90
2017-10-11T10:14:12.547Z,99.90
2017-10-11T10:16:38.720Z,99.90
2017-10-11T10:19:05.495Z,99.90
2017-10-11T10:21:31.516Z,99.90
2017-10-11T10:23:57.535Z,99.90
2017-10-11T10:26:23.779Z,99.90
2017-10-11T10:28:49.803Z,99.90
2017-10-11T10:31:15.823Z,99.90
2017-10-11T10:33:42.136Z,99.90
2017-10-11T10:36:08.170Z,99.90
2017-10-11T10:38:34.206Z,99.90
2017-10-11T10:41:00.508Z,99.90
2017-10-11T10:43:26.534Z,99.90
2017-10-11T10:45:52.578Z,99.90
2017-10-11T10:48:18.992Z,99.90
2017-10-11T10:50:45.031Z,99.90
2017-10-11T10:53:11.093Z,99.90
2017-10-11T10:55:38.288Z,99.90
2017-10-11T10:58:11.194Z,99.90
2017-10-11T11:00:37.290Z,99.90
2017-10-11T11:03:03.358Z,99.90
2017-10-11T11:05:29.491Z,99.90
2017-10-11T11:07:55.560Z,99.90
2017-10-11T11:10:21.598Z,99.90
2017-10-11T11:12:47.647Z,99.90
2017-10-11T11:15:13.695Z,99.90
2017-10-11T11:17:40.492Z,99.90
2017-10-11T11:20:06.518Z,99.90
2017-10-11T11:22:32.629Z,99.90
2017-10-11T11:24:58.667Z,99.90
2017-10-11T11:27:24.687Z,99.90
2017-10-11T11:29:50.877Z,99.90
2017-10-11T11:32:16.907Z,99.90
2017-10-11T11:34:42.919Z,99.90
2017-10-11T11:37:09.456Z,99.90
2017-10-11T11:39:35.466Z,99.90
2017-10-11T11:42:01.487Z,99.90
2017-10-11T11:44:27.539Z,99.90
2017-10-11T11:46:53.583Z,99.90
2017-10-11T11:49:19.679Z,99.90
2017-10-11T11:51:45.891Z,99.90
2017-10-11T11:54:11.914Z,99.90
2017-10-11T11:56:37.956Z,99.90
2017-10-11T11:59:04.048Z,99.90
2017-10-11T12:01:30.072Z,99.90
2017-10-11T12:03:56.111Z,99.90
2017-10-11T12:06:22.338Z,99.90
2017-10-11T12:08:48.356Z,99.90
2017-10-11T12:11:14.391Z,99.90
2017-10-11T12:13:40.428Z,99.80
2017-10-11T12:16:06.454Z,99.60
2017-10-11T12:18:32.474Z,99.70
2017-10-11T12:20:58.648Z,99.70
2017-10-11T12:23:25.407Z,99.50
2017-10-11T12:25:51.451Z,99.50
2017-10-11T12:28:17.519Z,99.30
2017-10-11T12:30:44.290Z,99.20
2017-10-11T12:33:10.303Z,99.10
2017-10-11T12:35:36.384Z,98.90
2017-10-11T12:38:02.418Z,99.00
2017-10-11T12:40:28.438Z,98.80
2017-10-11T12:42:54.483Z,98.70
2017-10-11T12:45:21.389Z,98.80
2017-10-11T12:47:47.431Z,98.80
2017-10-11T12:50:20.526Z,98.60
2017-10-11T12:52:47.279Z,98.70
2017-10-11T12:55:14.061Z,98.50
2017-10-11T12:57:40.306Z,98.40
2017-10-11T13:00:06.320Z,98.20
2017-10-11T13:02:32.346Z,97.90
2017-10-11T13:04:58.387Z,97.80
2017-10-11T13:07:24.406Z,97.90
2017-10-11T13:09:50.437Z,97.90
2017-10-11T13:12:17.277Z,98.00
2017-10-11T13:14:44.035Z,97.80
2017-10-11T13:17:10.791Z,97.90
2017-10-11T13:19:36.830Z,97.60
2017-10-11T13:22:02.879Z,97.60
2017-10-11T13:24:28.926Z,97.80
2017-10-11T13:26:55.734Z,97.90
2017-10-11T13:29:21.784Z,97.90
2017-10-11T13:31:48.576Z,97.90
2017-10-11T13:34:14.602Z,97.90
2017-10-11T13:36:40.615Z,97.90
2017-10-11T13:39:06.838Z,97.90
2017-10-11T13:41:32.839Z,97.90
2017-10-11T13:43:59.598Z,97.70
2017-10-11T13:46:25.642Z,97.70
2017-10-11T13:48:58.789Z,97.80
2017-10-11T13:51:25.867Z,97.60
2017-10-11T13:53:51.907Z,97.60
2017-10-11T13:56:17.956Z,97.60
2017-10-11T13:58:43.993Z,97.70
2017-10-11T14:01:10.771Z,97.70
2017-10-11T14:03:36.787Z,97.70
2017-10-11T14:06:03.007Z,97.80
2017-10-11T14:08:29.043Z,97.80
2017-10-11T14:10:55.120Z,97.80
2017-10-11T14:13:22.412Z,98.00
2017-10-11T14:15:48.435Z,98.00
2017-10-11T14:18:14.482Z,98.10
2017-10-11T14:20:40.898Z,97.80
2017-10-11T14:23:06.931Z,97.70
2017-10-11T14:25:32.966Z,97.80
2017-10-11T14:27:59.046Z,97.90
2017-10-11T14:30:25.072Z,97.90
2017-10-11T14:32:51.154Z,97.70
2017-10-11T14:35:17.184Z,98.00
2017-10-11T14:37:43.979Z,97.40
2017-10-11T14:40:16.978Z,97.40
2017-10-11T14:42:43.044Z,97.30
2017-10-11T14:45:09.811Z,97.10
2017-10-11T14:47:35.868Z,97.30
2017-10-11T14:50:01.889Z,96.80
2017-10-11T14:52:27.912Z,96.70
2017-10-11T14:54:54.307Z,96.70
2017-10-11T14:57:20.320Z,96.80
2017-10-11T14:59:46.351Z,96.70
2017-10-11T15:02:12.778Z,96.50
2017-10-11T15:04:38.819Z,96.60
2017-10-11T15:07:04.854Z,96.30
2017-10-11T15:09:31.156Z,96.50
2017-10-11T15:11:57.203Z,96.40
2017-10-11T15:14:23.235Z,96.50
2017-10-11T15:16:49.290Z,96.60
2017-10-11T15:19:16.091Z,96.40
2017-10-11T15:21:42.119Z,96.40
2017-10-11T15:24:08.211Z,96.30
2017-10-11T15:26:34.243Z,96.40
2017-10-11T15:29:00.268Z,96.20
2017-10-11T15:31:26.574Z,96.10
2017-10-11T15:33:52.599Z,96.10
2017-10-11T15:36:18.635Z,96.20
2017-10-11T15:38:44.848Z,96.40
2017-10-11T15:41:10.878Z,96.50
2017-10-11T15:43:36.955Z,96.30
2017-10-11T15:46:03.877Z,96.40
2017-10-11T15:48:29.931Z,96.40
2017-10-11T15:50:56.692Z,96.50
2017-10-11T15:53:22.925Z,96.50
2017-10-11T15:55:48.955Z,96.70
2017-10-11T15:58:15.007Z,96.80
2017-10-11T16:00:41.083Z,97.00
2017-10-11T16:03:07.109Z,96.70
2017-10-11T16:05:33.133Z,96.80
2017-10-11T16:07:59.382Z,96.80
2017-10-11T16:10:25.424Z,96.80
2017-10-11T16:12:51.449Z,97.00
2017-10-11T16:15:17.499Z,97.00
2017-10-11T16:17:44.266Z,97.10
2017-10-11T16:20:10.316Z,97.10
2017-10-11T16:22:36.415Z,97.00
2017-10-11T16:25:02.475Z,96.70
2017-10-11T16:27:30.011Z,96.60
2017-10-11T16:29:56.423Z,96.60
2017-10-11T16:32:22.458Z,96.70
2017-10-11T16:34:52.212Z,97.10
2017-10-11T16:37:19.196Z,96.40
2017-10-11T16:39:45.532Z,96.40
2017-10-11T16:42:11.563Z,96.30
2017-10-11T16:44:37.623Z,96.40
2017-10-11T16:47:05.142Z,96.10
2017-10-11T16:49:31.178Z,96.10
2017-10-11T16:51:57.315Z,96.10
2017-10-11T16:54:23.325Z,95.90
2017-10-11T16:59:00.329Z,95.70
2017-10-11T17:01:26.363Z,95.70
2017-10-11T17:03:52.410Z,95.70
2017-10-11T17:06:19.206Z,95.40
2017-10-11T17:08:46.300Z,95.40
2017-10-11T17:11:12.419Z,95.10
2017-10-11T17:13:39.186Z,95.40
2017-10-11T17:16:05.223Z,95.30
2017-10-11T17:18:31.259Z,95.20
2017-10-11T17:20:57.662Z,95.10
2017-10-11T17:23:23.711Z,95.00
2017-10-11T17:25:49.734Z,95.00
2017-10-11T17:28:16.035Z,95.00
2017-10-11T17:30:42.086Z,94.90
2017-10-11T17:33:08.102Z,94.90
2017-10-11T17:35:34.417Z,94.80
2017-10-11T17:38:00.435Z,94.80
2017-10-11T17:40:26.497Z,94.80
2017-10-11T17:42:52.671Z,94.70
2017-10-11T17:45:18.738Z,94.60
2017-10-11T17:47:44.763Z,94.80
2017-10-11T17:50:11.150Z,95.00
2017-10-11T17:52:37.182Z,94.80
2017-10-11T17:55:03.227Z,95.00
2017-10-11T17:57:29.271Z,94.90
2017-10-11T17:59:55.300Z,94.80
2017-10-11T18:02:21.378Z,94.70
2017-10-11T18:04:47.410Z,95.10
2017-10-11T18:07:13.455Z,94.60
2017-10-11T18:09:39.638Z,94.50
2017-10-11T18:12:05.672Z,94.50
2017-10-11T18:14:31.699Z,94.40
2017-10-11T18:16:58.011Z,94.40
2017-10-11T18:19:24.069Z,94.40
2017-10-11T18:21:50.122Z,94.40
2017-10-11T18:24:17.295Z,94.40
2017-10-11T18:26:43.340Z,94.40
2017-10-11T18:29:09.367Z,94.40
2017-10-11T18:31:35.434Z,94.30
2017-10-11T18:34:02.211Z,94.10
2017-10-11T18:36:28.243Z,94.10
2017-10-11T18:38:54.292Z,94.00
2017-10-11T18:41:20.352Z,93.90
2017-10-11T18:43:47.115Z,93.80
2017-10-11T18:46:13.355Z,93.70
2017-10-11T18:48:39.407Z,93.80
2017-10-11T18:51:05.446Z,93.80
2017-10-11T18:53:32.268Z,93.70
2017-10-11T18:55:58.295Z,93.80
2017-10-11T18:58:24.331Z,93.90
2017-10-11T19:00:50.411Z,93.80
2017-10-11T19:03:16.464Z,93.90
2017-10-11T19:05:42.499Z,93.90
2017-10-11T19:08:09.339Z,93.80
2017-10-11T19:10:35.364Z,93.80
2017-10-11T19:13:02.147Z,93.50
2017-10-11T19:15:28.388Z,93.50
2017-10-11T19:17:54.451Z,93.60
2017-10-11T19:20:20.506Z,93.70
2017-10-11T19:22:46.586Z,93.60
2017-10-11T19:25:12.631Z,93.90
2017-10-11T19:27:39.399Z,93.50
2017-10-11T19:30:05.642Z,93.50
2017-10-11T19:32:31.758Z,93.60
2017-10-11T19:34:57.838Z,93.20
2017-10-11T19:37:24.981Z,93.30
2017-10-11T19:39:51.015Z,93.30
2017-10-11T19:42:17.799Z,93.20
2017-10-11T19:44:44.121Z,93.10
2017-10-11T19:47:10.163Z,93.10
2017-10-11T19:49:36.216Z,93.00
2017-10-11T19:52:02.584Z,93.00
2017-10-11T19:54:28.643Z,93.30
2017-10-11T19:56:54.694Z,93.10
2017-10-11T19:59:20.783Z,93.10
2017-10-11T20:01:46.838Z,92.90
2017-10-11T20:04:12.883Z,92.80
2017-10-11T20:06:39.059Z,92.90
2017-10-11T20:09:05.088Z,92.90
2017-10-11T20:11:31.132Z,92.90
2017-10-11T20:13:58.218Z,92.90
2017-10-11T20:16:24.255Z,92.90
2017-10-11T20:18:50.283Z,92.80
2017-10-11T20:21:16.592Z,93.00
2017-10-11T20:23:42.635Z,92.80
2017-10-11T20:26:08.687Z,92.70
2017-10-11T20:28:35.079Z,92.70
2017-10-11T20:31:01.095Z,92.20
2017-10-11T20:33:27.118Z,92.10
2017-10-11T20:35:53.202Z,92.20
2017-10-11T20:38:20.017Z,91.90
2017-10-11T20:40:46.064Z,91.90
2017-10-11T20:43:12.847Z,92.00
2017-10-11T20:45:38.915Z,91.90
2017-10-11T20:48:04.964Z,91.60
2017-10-11T20:50:32.128Z,91.70
2017-10-11T20:53:01.526Z,91.70
2017-10-11T20:55:27.582Z,91.80
2017-10-11T20:57:53.888Z,91.80
2017-10-11T21:00:19.938Z,92.00
2017-10-11T21:02:45.996Z,91.90
2017-10-11T21:05:12.803Z,91.70
2017-10-11T21:07:38.869Z,91.70
2017-10-11T21:10:05.648Z,91.60
2017-10-11T21:12:31.752Z,91.60
2017-10-11T21:14:57.789Z,91.50
2017-10-11T21:17:23.831Z,91.40
2017-10-11T21:19:49.879Z,91.60
2017-10-11T21:22:15.931Z,91.30
2017-10-11T21:24:41.955Z,91.30
2017-10-11T21:27:08.003Z,91.30
2017-10-11T21:29:34.039Z,91.30
2017-10-11T21:32:00.056Z,91.40
2017-10-11T21:34:26.098Z,91.30
2017-10-11T21:36:52.143Z,91.20
2017-10-11T21:39:18.975Z,90.80
2017-10-11T21:41:45.052Z,90.80
2017-10-11T21:44:11.083Z,90.60
2017-10-11T21:46:37.115Z,90.40
2017-10-11T21:49:03.281Z,90.10
2017-10-11T21:51:30.058Z,89.90
2017-10-11T21:53:56.087Z,89.90
2017-10-11T21:56:22.146Z,90.00
2017-10-11T21:58:48.207Z,90.00
2017-10-11T22:01:14.246Z,90.00
2017-10-11T22:03:40.584Z,89.70
2017-10-11T22:06:06.694Z,89.80
2017-10-11T22:08:32.727Z,90.00
2017-10-11T22:10:58.799Z,89.40
2017-10-11T22:13:24.834Z,89.50
2017-10-11T22:15:51.631Z,90.00
2017-10-11T22:18:17.697Z,90.00
2017-10-11T22:20:44.478Z,90.20
2017-10-11T22:23:10.546Z,90.20
2017-10-11T22:25:37.135Z,90.20
2017-10-11T22:28:03.194Z,90.30
2017-10-11T22:30:29.268Z,90.40
2017-10-11T22:32:55.346Z,90.70
2017-10-11T22:35:21.394Z,90.90
2017-10-11T22:37:48.217Z,91.10
2017-10-11T22:40:15.206Z,91.30
2017-10-11T22:42:41.255Z,91.30
2017-10-11T22:45:07.283Z,91.40
2017-10-11T22:47:33.349Z,91.50
2017-10-11T22:50:00.119Z,91.60
2017-10-11T22:52:26.154Z,91.70
2017-10-11T22:54:52.255Z,91.60
2017-10-11T22:57:18.309Z,91.80
2017-10-11T22:59:44.367Z,91.80
2017-10-11T23:02:11.347Z,91.90
2017-10-11T23:04:37.371Z,91.90
2017-10-11T23:07:03.397Z,91.90
2017-10-11T23:09:29.489Z,92.10
2017-10-11T23:11:56.270Z,92.40
2017-10-11T23:14:22.303Z,92.30
2017-10-11T23:16:48.618Z,92.40
2017-10-11T23:19:14.641Z,92.50
2017-10-11T23:21:40.680Z,92.50
2017-10-11T23:24:06.767Z,92.60
2017-10-11T23:26:32.800Z,92.90
2017-10-11T23:28:58.841Z,93.00
2017-10-11T23:31:24.904Z,93.20
2017-10-11T23:33:51.718Z,93.40
2017-10-11T23:36:17.742Z,93.30
2017-10-11T23:38:44.864Z,93.40
2017-10-11T23:41:10.896Z,93.50
2017-10-11T23:43:36.958Z,93.50
2017-10-11T23:46:03.801Z,93.50
2017-10-11T23:48:30.592Z,93.50
2017-10-11T23:50:56.626Z,93.50
2017-10-11T23:53:22.706Z,93.50
2017-10-11T23:55:48.714Z,93.40
2017-10-11T23:58:14.761Z,93.70
